Time;durP1;ratioP1;P1;durP2;ratioP2;P2;SDS_P1;SDS_P2;PMS_P1;PMS_P2;Temp;Humidity;BMP_temperature;BMP_pressure;BME280_temperature;BME280_humidity;BME280_pressure;Samples;Min_cycle;Max_cycle;Signal;HPM_P1;HPM_P2
2022/03/27 00:02:09;;;;;;;15.90;7.72;;;;;;;11.82;38.38;100701.66;4517689;31;33768;-68
2022/03/27 00:04:37;;;;;;;15.80;7.82;;;;;;;12.16;37.83;100701.97;4517442;31;33901;-68
2022/03/27 00:07:05;;;;;;;15.43;8.55;;;;;;;12.02;38.17;100697.81;4517759;31;34054;-68
2022/03/27 00:09:32;;;;;;;15.70;7.75;;;;;;;12.20;37.82;100700.44;4517805;31;33483;-68
2022/03/27 00:12:00;;;;;;;14.40;7.70;;;;;;;12.22;37.74;100692.84;4517781;31;34229;-68
2022/03/27 00:14:27;;;;;;;14.00;7.75;;;;;;;12.56;37.20;100701.22;4517387;31;34207;-69
2022/03/27 00:16:54;;;;;;;14.77;7.93;;;;;;;12.24;37.83;100700.78;4517417;31;33976;-68
2022/03/27 00:19:22;;;;;;;17.20;8.48;;;;;;;12.14;37.97;100695.94;4517667;31;33505;-68
2022/03/27 00:21:49;;;;;;;18.23;8.63;;;;;;;12.30;37.52;100703.38;4517525;31;33951;-68
2022/03/27 00:24:17;;;;;;;17.35;8.65;;;;;;;12.36;37.34;100707.06;4517194;31;35193;-68
2022/03/27 00:26:44;;;;;;;15.07;8.05;;;;;;;12.29;37.79;100707.16;4517664;31;34761;-67
2022/03/27 00:29:15;;;;;;;17.75;8.80;;;;;;;12.51;37.39;100706.56;4517913;31;33393;-68
2022/03/27 00:31:42;;;;;;;12.95;7.70;;;;;;;12.98;36.46;100706.50;4517725;31;34859;-69
2022/03/27 00:34:11;;;;;;;15.95;8.13;;;;;;;13.01;36.39;100707.91;4517092;31;35191;-67
2022/03/27 00:36:38;;;;;;;15.50;7.75;;;;;;;12.81;36.74;100705.59;4517303;31;34205;-67
2022/03/27 00:39:05;;;;;;;15.90;8.40;;;;;;;12.15;38.27;100708.47;4517478;31;33499;-68
2022/03/27 00:41:34;;;;;;;17.60;7.50;;;;;;;12.03;38.73;100707.63;4516961;31;34884;-69
2022/03/27 00:44:01;;;;;;;14.98;7.97;;;;;;;12.26;38.14;100714.97;4517050;31;34185;-67
2022/03/27 00:46:29;;;;;;;15.88;7.72;;;;;;;12.51;37.91;100715.56;4517144;31;32674;-68
2022/03/27 00:48:57;;;;;;;18.42;8.05;;;;;;;12.48;37.92;100724.22;4517361;31;34467;-66
2022/03/27 00:51:24;;;;;;;16.17;8.30;;;;;;;11.96;39.04;100718.59;4517532;31;34012;-67
2022/03/27 00:53:51;;;;;;;13.77;8.18;;;;;;;12.16;38.72;100714.72;4516802;31;34968;-68
2022/03/27 00:56:19;;;;;;;14.55;7.37;;;;;;;12.27;38.38;100716.62;4517531;31;34629;-68
2022/03/27 00:58:46;;;;;;;16.67;8.43;;;;;;;12.10;38.81;100720.06;4517541;31;34228;-67
2022/03/27 01:01:24;;;;;;;15.40;8.02;;;;;;;11.87;39.40;100717.25;4517216;31;33833;-68
2022/03/27 01:03:57;;;;;;;16.00;8.52;;;;;;;12.13;38.60;100731.53;4516803;31;33707;-68
2022/03/27 01:06:32;;;;;;;14.45;7.82;;;;;;;12.33;38.49;100715.66;4517309;31;34698;-69
2022/03/27 01:11:47;;;;;;;17.30;8.13;;;;;;;11.82;39.49;100714.44;4517268;31;33787;-68
2022/03/27 01:14:22;;;;;;;16.35;8.93;;;;;;;11.45;40.28;100714.56;4516906;31;33762;-68
2022/03/27 01:17:08;;;;;;;17.80;8.52;;;;;;;11.82;39.46;100719.88;4517210;31;34617;-69
2022/03/27 01:19:48;;;;;;;16.05;7.87;;;;;;;11.62;40.11;100729.16;4517088;31;33552;-69
2022/03/27 01:22:16;;;;;;;14.25;8.48;;;;;;;11.56;40.27;100721.09;4516925;31;34650;-67
2022/03/27 01:24:45;;;;;;;17.62;8.25;;;;;;;11.19;41.20;100722.00;4516777;31;34029;-69
2022/03/27 01:27:13;;;;;;;16.48;8.18;;;;;;;11.70;40.04;100712.50;4517489;31;34134;-68
2022/03/27 01:29:41;;;;;;;16.73;8.30;;;;;;;11.74;39.64;100718.28;4516733;31;33730;-68
2022/03/27 01:32:11;;;;;;;18.65;8.48;;;;;;;11.70;40.02;100717.94;4517314;31;34749;-66
2022/03/27 01:34:39;;;;;;;14.73;7.85;;;;;;;11.80;39.62;100716.56;4517235;31;34282;-68
2022/03/27 01:37:07;;;;;;;19.42;8.05;;;;;;;11.50;40.19;100717.41;4516797;31;33652;-67
2022/03/27 01:39:36;;;;;;;17.75;8.45;;;;;;;11.53;40.30;100716.09;4513825;31;33265;-69
2022/03/27 01:42:05;;;;;;;16.65;8.20;;;;;;;11.85;39.71;100722.09;4516397;31;33821;-69
2022/03/27 01:44:33;;;;;;;17.02;8.57;;;;;;;11.99;39.31;100718.16;4517262;31;34730;-69
2022/03/27 01:47:01;;;;;;;22.65;8.15;;;;;;;12.09;38.62;100729.28;4517023;31;34009;-68
2022/03/27 01:49:29;;;;;;;17.40;8.90;;;;;;;11.89;39.20;100734.22;4516407;31;34283;-68
2022/03/27 01:51:56;;;;;;;17.15;8.48;;;;;;;11.74;39.63;100731.06;4517031;31;33984;-69
2022/03/27 01:54:24;;;;;;;15.00;8.00;;;;;;;12.00;38.94;100740.72;4515912;31;34263;-68
2022/03/27 01:56:51;;;;;;;17.48;9.00;;;;;;;12.42;38.17;100741.50;4516897;31;33907;-68
2022/03/27 01:59:21;;;;;;;18.62;8.75;;;;;;;11.74;39.26;100747.38;4516554;31;33318;-68
2022/03/27 02:01:49;;;;;;;18.35;9.15;;;;;;;11.79;39.37;100742.91;4516784;31;34018;-68
2022/03/27 02:04:17;;;;;;;21.55;9.05;;;;;;;11.75;39.65;100747.16;4516697;31;35178;-67
2022/03/27 02:06:45;;;;;;;17.08;9.02;;;;;;;11.41;40.19;100744.06;4516859;31;33854;-68
2022/03/27 02:09:13;;;;;;;16.70;8.75;;;;;;;11.33;40.78;100749.00;4514929;31;34200;-68
2022/03/27 02:11:41;;;;;;;19.33;8.90;;;;;;;11.68;39.88;100743.69;4515443;31;33687;-67
2022/03/27 02:14:10;;;;;;;14.98;8.30;;;;;;;11.39;40.31;100743.47;4516699;31;34828;-69
2022/03/27 02:16:38;;;;;;;18.12;8.50;;;;;;;11.55;40.11;100736.56;4516892;31;34363;-68
2022/03/27 02:19:09;;;;;;;16.35;8.55;;;;;;;11.54;40.06;100736.81;4515102;31;34395;-68
2022/03/27 02:21:39;;;;;;;17.48;9.05;;;;;;;11.19;40.91;100740.19;4516051;31;34139;-68
2022/03/27 02:24:08;;;;;;;16.50;8.60;;;;;;;10.94;41.40;100743.00;4516317;31;33666;-69
2022/03/27 02:26:35;;;;;;;21.00;9.65;;;;;;;11.48;40.69;100757.56;4516531;31;34280;-67
2022/03/27 02:29:03;;;;;;;15.95;8.57;;;;;;;11.65;39.99;100747.69;4516226;31;34308;-68
2022/03/27 02:31:30;;;;;;;15.55;8.45;;;;;;;11.39;40.25;100754.34;4516797;31;34058;-68
2022/03/27 02:33:58;;;;;;;18.90;9.57;;;;;;;11.59;40.13;100745.09;4516480;31;33475;-68
2022/03/27 02:36:25;;;;;;;18.62;8.88;;;;;;;11.23;41.03;100753.09;4516070;31;34660;-69
2022/03/27 02:38:53;;;;;;;14.27;7.62;;;;;;;11.13;41.34;100752.78;4516374;31;34317;-68
2022/03/27 02:41:20;;;;;;;15.88;9.38;;;;;;;11.12;41.09;100763.88;4516319;31;33128;-67
2022/03/27 02:43:48;;;;;;;15.38;9.18;;;;;;;11.22;41.10;100769.63;4516249;31;34273;-68
2022/03/27 02:46:15;;;;;;;17.33;8.63;;;;;;;10.85;42.07;100762.31;4515859;31;34647;-67
2022/03/27 02:48:43;;;;;;;19.10;9.25;;;;;;;11.60;40.38;100771.22;4516254;31;33367;-66
2022/03/27 02:51:10;;;;;;;21.50;8.65;;;;;;;11.47;40.64;100772.22;4516331;31;33961;-67
2022/03/27 02:53:38;;;;;;;17.80;9.40;;;;;;;11.85;39.88;100779.22;4516251;31;34299;-68
2022/03/27 02:56:07;;;;;;;18.48;8.65;;;;;;;11.18;41.57;100768.41;4515537;31;33430;-68
2022/03/27 02:58:35;;;;;;;16.95;8.63;;;;;;;11.09;41.71;100776.03;4516245;31;34444;-68
2022/03/27 03:01:04;;;;;;;18.08;8.85;;;;;;;10.72;42.47;100773.31;4516005;31;33710;-68
2022/03/27 03:03:31;;;;;;;17.08;8.77;;;;;;;11.07;41.88;100773.53;4516009;31;34166;-67
2022/03/27 03:06:01;;;;;;;18.77;9.98;;;;;;;10.91;41.97;100759.72;4516747;31;34207;-69
2022/03/27 03:08:28;;;;;;;15.57;8.43;;;;;;;10.99;41.97;100764.88;4516963;31;34460;-68
2022/03/27 03:10:56;;;;;;;16.58;8.68;;;;;;;11.52;41.20;100772.34;4518160;31;34783;-68
2022/03/27 03:13:24;;;;;;;17.10;8.65;;;;;;;11.06;41.72;100773.78;4518341;31;34733;-68
2022/03/27 03:15:52;;;;;;;19.20;9.23;;;;;;;11.14;41.81;100768.03;4517655;31;33613;-67
2022/03/27 03:18:19;;;;;;;22.65;9.68;;;;;;;11.32;41.83;100785.34;4517171;31;33278;-67
2022/03/27 03:20:47;;;;;;;16.90;9.57;;;;;;;11.16;41.79;100787.62;4516625;31;33972;-67
2022/03/27 03:23:14;;;;;;;18.55;9.10;;;;;;;11.48;41.55;100785.56;4518005;31;34203;-67
2022/03/27 03:25:42;;;;;;;16.60;9.00;;;;;;;11.68;41.36;100792.63;4518137;31;34056;-68
2022/03/27 03:28:30;;;;;;;18.27;10.30;;;;;;;11.68;41.25;100808.94;4517877;31;34403;-68
2022/03/27 03:30:58;;;;;;;17.73;9.57;;;;;;;11.69;41.23;100802.44;4518234;31;33945;-67
2022/03/27 03:33:26;;;;;;;19.20;10.63;;;;;;;11.80;41.06;100801.66;4517399;31;35068;-68
2022/03/27 03:35:54;;;;;;;18.25;9.70;;;;;;;11.70;41.35;100812.25;4517965;31;34089;-69
2022/03/27 03:38:21;;;;;;;21.17;10.23;;;;;;;11.84;40.91;100813.72;4518125;31;33293;-68
2022/03/27 03:40:49;;;;;;;21.90;10.23;;;;;;;11.96;40.88;100812.97;4518072;31;33873;-69
2022/03/27 03:43:20;;;;;;;22.52;9.35;;;;;;;11.55;42.28;100817.25;4517542;31;33880;-67
2022/03/27 03:45:47;;;;;;;17.85;9.20;;;;;;;12.04;40.93;100820.81;4518067;31;34768;-68
2022/03/27 03:48:15;;;;;;;17.92;9.07;;;;;;;11.96;41.14;100807.53;4517978;31;34408;-65
2022/03/27 03:50:43;;;;;;;14.82;9.00;;;;;;;11.78;41.32;100817.38;4517001;31;34769;-67
2022/03/27 03:53:10;;;;;;;17.08;9.65;;;;;;;11.84;41.17;100821.88;4517896;31;35094;-65
2022/03/27 03:55:38;;;;;;;16.35;8.68;;;;;;;11.48;41.79;100822.78;4517848;31;34274;-68
2022/03/27 03:58:06;;;;;;;22.00;9.68;;;;;;;11.94;41.03;100826.78;4517910;31;33776;-65
2022/03/27 04:00:33;;;;;;;19.42;9.38;;;;;;;11.53;41.39;100831.06;4517410;31;34804;-65
2022/03/27 04:03:02;;;;;;;17.08;8.52;;;;;;;11.36;42.03;100828.19;4517688;31;34964;-66
2022/03/27 04:05:30;;;;;;;18.50;9.23;;;;;;;11.76;41.33;100830.37;4517581;31;33828;-64
2022/03/27 04:07:57;;;;;;;22.83;9.82;;;;;;;12.19;40.25;100834.78;4517883;31;33495;-68
2022/03/27 04:10:25;;;;;;;17.92;9.93;;;;;;;11.67;41.30;100838.00;4517345;31;33830;-67
2022/03/27 04:12:52;;;;;;;16.98;9.32;;;;;;;11.30;42.18;100837.22;4517501;31;34147;-67
2022/03/27 04:15:20;;;;;;;20.10;9.93;;;;;;;11.31;42.31;100843.47;4517810;31;33869;-69
2022/03/27 04:17:51;;;;;;;17.77;9.25;;;;;;;11.46;42.14;100846.66;4516787;31;33558;-66
2022/03/27 04:20:18;;;;;;;19.60;9.35;;;;;;;11.00;43.05;100853.44;4517250;31;33658;-68
2022/03/27 04:22:46;;;;;;;19.33;9.63;;;;;;;10.78;43.79;100845.72;4517475;31;34376;-68
2022/03/27 04:25:15;;;;;;;16.75;9.32;;;;;;;10.61;44.55;100856.28;4517580;31;33863;-66
2022/03/27 04:27:43;;;;;;;16.92;9.02;;;;;;;11.00;43.53;100862.41;4517620;31;33591;-65
2022/03/27 04:30:12;;;;;;;18.50;9.55;;;;;;;11.02;43.55;100870.34;4517121;31;33983;-66
2022/03/27 04:32:40;;;;;;;15.98;8.40;;;;;;;11.42;42.94;100868.00;4517476;31;34096;-67
2022/03/27 04:35:09;;;;;;;19.83;9.65;;;;;;;10.78;44.02;100875.56;4517554;31;34607;-66
2022/03/27 04:37:41;;;;;;;18.05;9.27;;;;;;;10.81;44.12;100883.25;4518010;31;33638;-66
2022/03/27 04:40:10;;;;;;;19.58;9.70;;;;;;;11.27;43.38;100895.56;4517253;31;34003;-65
2022/03/27 04:42:37;;;;;;;19.75;9.40;;;;;;;10.75;44.57;100900.41;4516298;31;33839;-66
2022/03/27 04:45:05;;;;;;;18.00;9.32;;;;;;;10.63;44.72;100905.75;4517767;31;34238;-66
2022/03/27 04:47:34;;;;;;;19.75;10.48;;;;;;;10.84;44.49;100914.56;4517373;31;33586;-67
2022/03/27 04:50:03;;;;;;;17.23;9.50;;;;;;;11.17;43.69;100919.69;4516826;31;33730;-65
2022/03/27 04:52:30;;;;;;;22.48;10.40;;;;;;;10.89;44.31;100917.44;4517505;31;34087;-66
2022/03/27 04:54:58;;;;;;;23.45;10.02;;;;;;;10.88;44.51;100926.62;4517260;31;34074;-65
2022/03/27 04:57:32;;;;;;;20.60;11.48;;;;;;;11.24;43.69;100923.16;4517388;31;34327;-67
2022/03/27 05:00:00;;;;;;;22.58;10.00;;;;;;;11.42;43.46;100932.37;4516932;31;34922;-68
2022/03/27 05:02:28;;;;;;;20.62;9.45;;;;;;;11.57;43.06;100929.31;4517248;31;34305;-69
2022/03/27 05:04:55;;;;;;;20.45;9.93;;;;;;;11.62;43.40;100938.47;4517722;31;33858;-68
2022/03/27 05:07:23;;;;;;;19.92;10.23;;;;;;;11.40;43.61;100937.22;4517284;31;33057;-68
2022/03/27 05:09:50;;;;;;;23.50;11.55;;;;;;;11.22;44.02;100938.84;4517053;31;33980;-66
2022/03/27 05:12:18;;;;;;;21.05;10.65;;;;;;;11.25;43.95;100938.44;4517459;31;35080;-67
2022/03/27 05:14:45;;;;;;;24.67;10.60;;;;;;;11.56;43.26;100947.50;4517325;31;34792;-67
2022/03/27 05:17:13;;;;;;;16.37;9.43;;;;;;;11.45;43.52;100950.97;4517174;31;33487;-66
2022/03/27 05:19:41;;;;;;;19.27;9.90;;;;;;;11.79;42.89;100957.72;4516240;31;33983;-69
2022/03/27 05:22:08;;;;;;;16.45;9.25;;;;;;;11.86;43.11;100963.06;4516636;31;34246;-78
2022/03/27 05:24:36;;;;;;;18.85;9.80;;;;;;;12.08;42.78;100964.28;4507555;31;33909;-71
2022/03/27 05:27:03;;;;;;;17.35;9.30;;;;;;;11.81;42.78;100958.28;4500735;31;34333;-74
2022/03/27 05:29:31;;;;;;;18.27;9.50;;;;;;;11.08;44.57;100959.88;4500309;31;34917;-74
2022/03/27 05:31:59;;;;;;;18.62;8.73;;;;;;;10.85;45.62;100965.91;4501009;31;33863;-74
2022/03/27 05:34:26;;;;;;;16.50;9.18;;;;;;;10.93;45.48;100964.84;4500986;31;34696;-74
2022/03/27 05:36:54;;;;;;;18.23;9.00;;;;;;;11.22;44.91;100967.91;4501055;31;34568;-67
2022/03/27 05:39:22;;;;;;;13.95;8.00;;;;;;;11.36;44.31;100971.31;4501260;31;34885;-67
2022/03/27 05:41:49;;;;;;;18.77;7.70;;;;;;;11.20;44.55;100979.00;4501317;31;34158;-71
2022/03/27 05:44:17;;;;;;;16.40;9.02;;;;;;;11.41;44.54;100976.94;4501281;31;34055;-71
2022/03/27 05:46:44;;;;;;;16.45;8.95;;;;;;;11.03;45.08;100980.59;4501128;31;34347;-69
2022/03/27 05:49:11;;;;;;;16.98;7.50;;;;;;;12.64;41.74;100994.91;4500600;31;34707;-71
2022/03/27 05:51:39;;;;;;;14.95;7.57;;;;;;;12.61;41.36;100989.09;4500866;31;35025;-70
2022/03/27 05:54:06;;;;;;;12.98;7.28;;;;;;;13.86;38.98;100990.75;4500989;31;33640;-70
2022/03/27 05:56:34;;;;;;;11.70;7.05;;;;;;;14.13;38.11;100991.06;4500936;31;33378;-71
2022/03/27 05:59:01;;;;;;;12.37;7.07;;;;;;;14.80;37.14;100997.00;4500712;31;33966;-69
2022/03/27 06:01:29;;;;;;;14.82;7.32;;;;;;;14.76;36.90;101002.94;4500942;31;34124;-69
2022/03/27 06:03:57;;;;;;;13.18;6.62;;;;;;;15.18;36.41;101010.75;4501061;31;33829;-68
2022/03/27 06:06:25;;;;;;;10.65;6.25;;;;;;;15.34;35.76;101008.25;4500851;31;33390;-69
2022/03/27 06:08:57;;;;;;;13.02;6.60;;;;;;;15.64;35.49;101018.84;4501004;31;33938;-69
2022/03/27 06:11:24;;;;;;;13.30;6.45;;;;;;;15.91;34.33;101021.69;4504595;31;34227;-68
2022/03/27 06:13:52;;;;;;;11.98;6.00;;;;;;;16.82;34.65;101028.53;4516221;31;33831;-70
2022/03/27 06:16:20;;;;;;;10.77;5.70;;;;;;;17.59;31.23;101040.16;4516581;31;33441;-70
2022/03/27 06:18:47;;;;;;;9.73;5.85;;;;;;;17.34;32.37;101038.03;4515046;31;34777;-70
2022/03/27 06:21:15;;;;;;;9.68;5.55;;;;;;;17.05;32.57;101034.78;4516312;31;34385;-71
2022/03/27 06:23:46;;;;;;;9.57;5.28;;;;;;;18.39;31.71;101042.78;4516456;31;34241;-70
2022/03/27 06:26:14;;;;;;;8.93;5.07;;;;;;;18.18;30.67;101044.63;4516291;31;33631;-70
2022/03/27 06:28:41;;;;;;;10.05;4.78;;;;;;;17.77;31.28;101047.13;4516596;31;34720;-70
2022/03/27 06:31:08;;;;;;;9.48;5.75;;;;;;;18.97;29.38;101046.25;4516341;31;33874;-70
2022/03/27 06:33:36;;;;;;;10.98;5.82;;;;;;;18.75;29.76;101045.66;4516715;31;34065;-70
2022/03/27 06:36:04;;;;;;;9.63;5.47;;;;;;;18.73;29.31;101047.84;4516506;31;33112;-70
2022/03/27 06:38:31;;;;;;;8.70;5.60;;;;;;;19.40;29.70;101046.81;4516392;31;34143;-69
2022/03/27 06:40:59;;;;;;;8.00;5.00;;;;;;;18.32;30.37;101044.97;4517193;31;35116;-70
2022/03/27 06:43:26;;;;;;;10.40;5.70;;;;;;;18.81;29.96;101052.81;4518262;31;33903;-71
2022/03/27 06:45:54;;;;;;;9.48;5.32;;;;;;;18.98;29.55;101058.88;4518597;31;34025;-70
2022/03/27 06:48:21;;;;;;;7.50;4.97;;;;;;;19.16;30.12;101056.75;4518186;31;33663;-70
2022/03/27 06:50:50;;;;;;;9.05;5.12;;;;;;;20.36;27.62;101057.87;4518290;31;34665;-70
2022/03/27 06:53:20;;;;;;;9.23;5.07;;;;;;;19.40;29.10;101057.81;4518656;31;33920;-71
2022/03/27 06:55:48;;;;;;;9.68;5.53;;;;;;;20.27;27.48;101056.84;4517659;31;34366;-69
2022/03/27 06:58:15;;;;;;;8.93;4.97;;;;;;;18.89;29.28;101063.28;4518477;31;34602;-71
2022/03/27 07:03:30;;;;;;;7.47;4.62;;;;;;;19.30;29.10;101049.56;4518223;31;34632;-70
2022/03/27 07:05:57;;;;;;;8.98;4.95;;;;;;;18.75;29.81;101056.66;4518173;31;33259;-70
2022/03/27 07:08:25;;;;;;;8.65;4.90;;;;;;;18.23;30.62;101063.87;4517915;31;32831;-71
2022/03/27 07:10:52;;;;;;;10.23;5.22;;;;;;;18.88;29.87;101061.66;4517780;31;34069;-71
2022/03/27 07:13:20;;;;;;;9.90;5.72;;;;;;;19.36;28.90;101073.25;4518092;31;34112;-70
2022/03/27 07:15:48;;;;;;;12.50;5.12;;;;;;;19.38;28.74;101073.78;4518056;31;33719;-70
2022/03/27 07:18:17;;;;;;;7.32;4.90;;;;;;;18.87;30.13;101075.66;4518074;31;34924;-70
2022/03/27 07:20:47;;;;;;;11.38;5.35;;;;;;;18.59;30.62;101070.31;4516718;31;34230;-71
2022/03/27 07:23:17;;;;;;;10.15;5.10;;;;;;;17.89;31.48;101067.00;4518251;31;33826;-70
2022/03/27 07:25:53;;;;;;;10.38;5.18;;;;;;;18.91;30.11;101068.53;4517721;31;33458;-71
2022/03/27 07:28:21;;;;;;;8.77;5.05;;;;;;;18.21;31.86;101069.62;4518371;31;34045;-70
2022/03/27 07:30:49;;;;;;;8.43;4.80;;;;;;;17.84;31.71;101077.97;4516774;31;34159;-70
2022/03/27 07:33:17;;;;;;;8.55;4.75;;;;;;;19.38;29.67;101075.72;4517785;31;33988;-71
2022/03/27 07:35:44;;;;;;;9.35;5.07;;;;;;;19.82;29.09;101075.97;4517770;31;33432;-71
2022/03/27 07:38:13;;;;;;;8.18;5.20;;;;;;;20.17;28.98;101082.50;4514098;31;33867;-70
2022/03/27 07:40:40;;;;;;;8.32;4.95;;;;;;;19.59;29.08;101076.50;4517749;31;34048;-69
2022/03/27 07:43:08;;;;;;;8.45;5.00;;;;;;;20.18;28.42;101080.56;4517710;31;33905;-69
2022/03/27 07:45:36;;;;;;;8.60;4.93;;;;;;;20.55;28.54;101090.34;4517927;31;33438;-70
2022/03/27 07:48:04;;;;;;;8.80;4.95;;;;;;;20.59;28.46;101091.47;4516036;31;33456;-68
2022/03/27 07:50:31;;;;;;;8.38;5.07;;;;;;;21.54;26.00;101098.59;4517476;31;34925;-70
2022/03/27 07:53:00;;;;;;;11.27;5.20;;;;;;;19.95;28.17;101093.03;4511837;31;34756;-70
2022/03/27 07:55:28;;;;;;;7.68;4.60;;;;;;;20.26;27.88;101091.03;4517466;31;34228;-69
2022/03/27 07:57:55;;;;;;;7.40;4.37;;;;;;;19.81;28.64;101090.84;4512661;31;33930;-70
2022/03/27 08:00:24;;;;;;;8.43;5.05;;;;;;;19.77;30.00;101092.50;4504042;31;34161;-69
2022/03/27 08:02:52;;;;;;;7.60;4.95;;;;;;;20.31;29.30;101088.25;4501611;31;34784;-70
2022/03/27 08:05:21;;;;;;;7.65;4.85;;;;;;;20.65;27.77;101101.37;4514010;31;33776;-71
2022/03/27 08:07:50;;;;;;;9.02;5.00;;;;;;;18.53;31.48;101096.16;4516272;31;34832;-70
2022/03/27 08:10:18;;;;;;;8.02;4.78;;;;;;;18.24;32.67;101088.31;4512481;31;35036;-71
2022/03/27 08:12:46;;;;;;;8.48;5.07;;;;;;;18.72;31.62;101090.16;4515517;31;33593;-70
2022/03/27 08:15:15;;;;;;;8.00;5.07;;;;;;;18.90;32.52;101097.97;4516133;31;34073;-68
2022/03/27 08:17:51;;;;;;;8.75;4.80;;;;;;;19.93;30.91;101089.72;4514956;31;34086;-68
2022/03/27 08:20:19;;;;;;;9.75;5.15;;;;;;;20.33;29.95;101091.53;4514272;31;86765;-70
2022/03/27 08:22:47;;;;;;;10.35;5.87;;;;;;;20.71;29.04;101086.41;4517511;31;34786;-70
2022/03/27 08:26:55;;;;;;;7.75;4.72;;;;;;;19.18;30.70;101084.78;4517410;31;34088;-70
2022/03/27 08:28:03;;;;;;;9.40;5.50;;;;;;;19.94;30.09;101083.12;4516085;31;33895;-71
2022/03/27 08:30:30;;;;;;;7.50;4.85;;;;;;;19.17;30.75;101083.94;4517798;31;34444;-71
2022/03/27 08:32:57;;;;;;;8.40;5.40;;;;;;;18.59;31.89;101083.25;4516905;31;34029;-70
2022/03/27 08:35:25;;;;;;;9.18;5.57;;;;;;;18.99;31.51;101077.06;4517635;31;33520;-70
2022/03/27 08:37:52;;;;;;;10.60;5.15;;;;;;;18.81;32.32;101080.31;4513988;31;34648;-68
2022/03/27 08:40:20;;;;;;;10.52;5.30;;;;;;;19.39;31.21;101082.88;4515725;31;34301;-68
2022/03/27 08:42:49;;;;;;;8.02;5.22;;;;;;;18.54;32.22;101088.75;4514528;31;33818;-69
2022/03/27 08:45:16;;;;;;;7.47;4.57;;;;;;;19.67;30.87;101084.22;4500212;31;33551;-70
2022/03/27 08:47:43;;;;;;;8.90;5.50;;;;;;;19.71;30.74;101085.34;4512583;31;33916;-69
2022/03/27 08:50:26;;;;;;;10.95;5.43;;;;;;;18.71;31.55;101083.03;4517405;31;34353;-67
2022/03/27 08:52:59;;;;;;;9.48;5.22;;;;;;;18.77;32.32;101088.25;4515822;31;34020;-69
2022/03/27 08:55:38;;;;;;;8.52;5.32;;;;;;;19.16;31.67;101095.25;4517265;31;34463;-70
2022/03/27 08:58:11;;;;;;;8.50;5.40;;;;;;;18.52;32.37;101091.75;4516525;31;33677;-73
2022/03/27 09:00:40;;;;;;;11.27;5.90;;;;;;;19.18;31.89;101091.13;4517238;31;34249;-70
2022/03/27 09:03:07;;;;;;;10.65;6.25;;;;;;;19.07;30.82;101097.72;4516420;31;33935;-66
2022/03/27 09:05:39;;;;;;;11.93;5.68;;;;;;;17.64;33.95;101097.81;4515196;31;34321;-70
2022/03/27 09:08:09;;;;;;;9.30;5.57;;;;;;;17.80;33.75;101104.25;4510891;31;33737;-71
2022/03/27 09:10:40;;;;;;;8.80;5.00;;;;;;;18.43;32.73;101096.12;4515572;31;34144;-65
2022/03/27 09:13:16;;;;;;;11.48;5.45;;;;;;;18.34;33.34;101097.72;4515413;31;33606;-65
2022/03/27 09:15:44;;;;;;;9.35;5.45;;;;;;;18.15;33.48;101095.44;4513474;31;33365;-66
2022/03/27 09:18:13;;;;;;;9.27;5.60;;;;;;;17.56;34.00;101101.87;4516690;31;34030;-66
2022/03/27 09:20:52;;;;;;;10.27;5.60;;;;;;;18.40;33.61;101102.13;4515405;31;34313;-65
2022/03/27 09:23:21;;;;;;;9.38;5.40;;;;;;;17.55;34.27;101094.72;4509217;31;33752;-66
2022/03/27 09:25:59;;;;;;;10.57;5.68;;;;;;;17.74;33.67;101108.03;4517461;31;33628;-73
2022/03/27 09:28:28;;;;;;;10.88;5.97;;;;;;;17.12;34.89;101109.44;4517028;31;33777;-67
2022/03/27 09:31:01;;;;;;;9.88;5.72;;;;;;;17.26;34.57;101107.94;4515919;31;35175;-68
2022/03/27 09:33:55;;;;;;;10.82;5.25;;;;;;;18.13;33.16;101096.78;4502095;31;34906;-70
2022/03/27 09:36:34;;;;;;;8.40;5.70;;;;;;;18.63;32.05;101093.44;4513252;31;34391;-74
2022/03/27 09:39:16;;;;;;;9.10;5.70;;;;;;;19.47;31.20;101091.41;4517170;31;33850;-74
2022/03/27 09:41:45;;;;;;;9.00;4.90;;;;;;;18.22;32.34;101086.94;4517110;31;34178;-69
2022/03/27 09:44:21;;;;;;;9.05;5.72;;;;;;;18.58;32.24;101090.69;4517044;31;34050;-67
2022/03/27 09:46:54;;;;;;;9.23;5.55;;;;;;;18.84;32.76;101088.84;4516614;31;33634;-68
2022/03/27 09:49:44;;;;;;;9.68;5.65;;;;;;;18.94;31.68;101085.31;4515471;31;33820;-71
2022/03/27 09:52:14;;;;;;;10.15;5.15;;;;;;;18.23;32.66;101085.88;4516817;31;34691;-70
2022/03/27 09:54:51;;;;;;;8.77;4.80;;;;;;;18.83;31.34;101084.47;4516567;31;34436;-68
2022/03/27 09:57:56;;;;;;;12.02;5.57;;;;;;;18.69;32.47;101096.22;4516943;31;33373;-68
2022/03/27 10:00:25;;;;;;;10.50;5.82;;;;;;;18.05;32.48;101095.38;4484127;31;34083;-67
2022/03/27 10:02:52;;;;;;;11.93;5.93;;;;;;;17.26;33.81;101090.66;4511595;31;35093;-70
2022/03/27 10:05:21;;;;;;;7.55;5.07;;;;;;;17.55;33.49;101091.97;4499472;31;33747;-69
2022/03/27 10:07:52;;;;;;;16.35;5.37;;;;;;;18.53;32.36;101087.06;4501248;31;33484;-70
2022/03/27 10:10:22;;;;;;;8.07;5.00;;;;;;;19.03;32.04;101083.66;4500903;31;34665;-71
2022/03/27 10:12:51;;;;;;;9.30;5.28;;;;;;;19.08;31.91;101087.53;4500640;31;34254;-70
2022/03/27 10:15:20;;;;;;;9.02;5.45;;;;;;;18.41;31.47;101077.13;4499631;31;34991;-70
2022/03/27 10:17:57;;;;;;;8.63;5.18;;;;;;;17.79;32.33;101083.38;4501839;31;33163;-68
2022/03/27 10:20:29;;;;;;;9.60;5.70;;;;;;;18.19;31.94;101085.56;4516423;31;34739;-67
2022/03/27 10:23:07;;;;;;;7.60;4.68;;;;;;;18.84;31.40;101086.09;4514923;31;34168;-67
2022/03/27 10:25:39;;;;;;;8.88;5.37;;;;;;;18.04;32.60;101080.00;4516637;31;33824;-67
2022/03/27 10:28:07;;;;;;;11.82;5.53;;;;;;;19.37;30.65;101088.66;4516542;31;33544;-68
2022/03/27 10:30:35;;;;;;;8.60;5.43;;;;;;;18.55;31.56;101087.63;4516264;31;34049;-67
2022/03/27 10:33:03;;;;;;;8.57;5.10;;;;;;;18.13;32.53;101077.56;4516330;31;34153;-66
2022/03/27 10:35:39;;;;;;;9.65;5.60;;;;;;;18.89;31.88;101079.78;4516381;31;34104;-68
2022/03/27 10:38:25;;;;;;;8.57;5.40;;;;;;;19.40;29.96;101071.59;4515480;31;33913;-69
2022/03/27 10:41:13;;;;;;;8.48;5.10;;;;;;;19.64;29.41;101076.53;4516348;31;34506;-71
2022/03/27 10:43:46;;;;;;;8.77;5.40;;;;;;;19.77;29.29;101075.16;4516840;31;34089;-72
2022/03/27 10:46:19;;;;;;;8.40;5.07;;;;;;;20.09;28.48;101080.34;4514705;31;35228;-66
2022/03/27 10:48:49;;;;;;;10.23;5.75;;;;;;;19.13;29.85;101080.09;4516290;31;33495;-66
2022/03/27 10:51:26;;;;;;;8.60;5.18;;;;;;;18.53;30.73;101076.94;4516492;31;33684;-67
2022/03/27 10:54:20;;;;;;;8.48;5.50;;;;;;;18.46;31.19;101081.81;4516371;31;34308;-71
2022/03/27 10:56:51;;;;;;;9.90;5.90;;;;;;;18.34;31.91;101081.25;4509978;31;33682;-66
2022/03/27 10:59:20;;;;;;;8.85;5.68;;;;;;;18.53;30.73;101076.94;4516097;31;33476;-70
2022/03/27 11:01:49;;;;;;;10.45;5.65;;;;;;;17.67;33.07;101061.63;4516047;31;34036;-76
2022/03/27 11:04:21;;;;;;;7.37;5.05;;;;;;;18.18;31.91;101059.16;4515849;31;34168;-70
2022/03/27 11:06:50;;;;;;;9.65;5.57;;;;;;;18.49;31.33;101055.72;4516361;31;33920;-71
2022/03/27 11:09:34;;;;;;;9.00;4.87;;;;;;;19.20;29.57;101049.56;4515848;31;33514;-71
2022/03/27 11:12:24;;;;;;;9.38;4.95;;;;;;;19.26;29.79;101051.22;4514799;31;33770;-66
2022/03/27 11:14:52;;;;;;;8.90;5.25;;;;;;;19.92;28.84;101053.09;4502583;31;34858;-69
2022/03/27 11:17:41;;;;;;;9.35;5.57;;;;;;;19.65;28.51;101050.63;4515964;31;33907;-70
2022/03/27 11:20:16;;;;;;;7.72;4.95;;;;;;;19.64;29.67;101051.75;4515748;31;33389;-70
2022/03/27 11:22:48;;;;;;;9.10;5.57;;;;;;;20.55;27.21;101051.75;4515744;31;33739;-70
2022/03/27 11:25:34;;;;;;;11.38;5.82;;;;;;;21.21;26.84;101054.09;4515617;31;34531;-70
2022/03/27 11:28:07;;;;;;;9.13;5.43;;;;;;;19.93;28.18;101056.66;4518283;31;34033;-70
2022/03/27 11:30:50;;;;;;;7.93;4.95;;;;;;;19.43;29.73;101051.75;4517952;31;33552;-71
2022/03/27 11:33:18;;;;;;;7.25;4.43;;;;;;;21.31;27.79;101051.22;4518104;31;33891;-71
2022/03/27 11:36:01;;;;;;;10.32;5.43;;;;;;;21.82;26.74;101051.91;4517930;31;34813;-70
2022/03/27 11:38:33;;;;;;;10.00;5.47;;;;;;;20.98;26.02;101044.59;4518181;31;34082;-72